sensor_id;sensor_type;location;lat;lon;timestamp;P1;durP1;ratioP1;P2;durP2;ratioP2
53751;SDS011;41095;53.090;6.692;2023-03-01T00:00:37;20.13;;;16.17;;
53751;SDS011;41095;53.090;6.692;2023-03-01T00:03:03;18.20;;;15.65;;
53751;SDS011;41095;53.090;6.692;2023-03-01T00:05:28;22.40;;;15.40;;
53751;SDS011;41095;53.090;6.692;2023-03-01T00:07:54;16.45;;;13.50;;
53751;SDS011;41095;53.090;6.692;2023-03-01T00:10:20;15.88;;;12.90;;
53751;SDS011;41095;53.090;6.692;2023-03-01T00:12:45;16.90;;;15.10;;
53751;SDS011;41095;53.090;6.692;2023-03-01T00:15:11;19.77;;;16.88;;
53751;SDS011;41095;53.090;6.692;2023-03-01T00:17:37;21.33;;;14.60;;
53751;SDS011;41095;53.090;6.692;2023-03-01T00:20:03;16.30;;;13.23;;
53751;SDS011;41095;53.090;6.692;2023-03-01T00:22:33;20.55;;;16.85;;
53751;SDS011;41095;53.090;6.692;2023-03-01T00:24:59;19.33;;;14.98;;
53751;SDS011;41095;53.090;6.692;2023-03-01T00:27:24;18.45;;;16.25;;
53751;SDS011;41095;53.090;6.692;2023-03-01T00:29:50;20.63;;;16.83;;
53751;SDS011;41095;53.090;6.692;2023-03-01T00:32:17;18.52;;;15.48;;
53751;SDS011;41095;53.090;6.692;2023-03-01T00:34:42;20.08;;;15.68;;
53751;SDS011;41095;53.090;6.692;2023-03-01T00:37:19;22.00;;;17.75;;
53751;SDS011;41095;53.090;6.692;2023-03-01T00:39:45;16.88;;;14.98;;
53751;SDS011;41095;53.090;6.692;2023-03-01T00:42:11;20.25;;;16.13;;
53751;SDS011;41095;53.090;6.692;2023-03-01T00:44:37;18.38;;;15.95;;
53751;SDS011;41095;53.090;6.692;2023-03-01T00:47:03;21.13;;;16.52;;
53751;SDS011;41095;53.090;6.692;2023-03-01T00:49:28;19.63;;;16.88;;
53751;SDS011;41095;53.090;6.692;2023-03-01T00:51:54;21.25;;;16.10;;
53751;SDS011;41095;53.090;6.692;2023-03-01T00:54:20;22.05;;;17.40;;
53751;SDS011;41095;53.090;6.692;2023-03-01T00:56:46;20.63;;;17.88;;
53751;SDS011;41095;53.090;6.692;2023-03-01T00:59:11;23.42;;;18.02;;
53751;SDS011;41095;53.090;6.692;2023-03-01T01:01:37;19.65;;;17.27;;
53751;SDS011;41095;53.090;6.692;2023-03-01T01:04:07;22.38;;;17.98;;
53751;SDS011;41095;53.090;6.692;2023-03-01T01:06:35;22.38;;;19.05;;
53751;SDS011;41095;53.090;6.692;2023-03-01T01:09:13;20.35;;;16.67;;
53751;SDS011;41095;53.090;6.692;2023-03-01T01:11:44;21.40;;;16.83;;
53751;SDS011;41095;53.090;6.692;2023-03-01T01:14:15;25.30;;;19.27;;
53751;SDS011;41095;53.090;6.692;2023-03-01T01:16:41;22.63;;;17.55;;
53751;SDS011;41095;53.090;6.692;2023-03-01T01:19:07;22.48;;;17.02;;
53751;SDS011;41095;53.090;6.692;2023-03-01T01:21:35;27.17;;;19.27;;
53751;SDS011;41095;53.090;6.692;2023-03-01T01:24:02;45.97;;;24.23;;
53751;SDS011;41095;53.090;6.692;2023-03-01T01:26:29;34.05;;;22.58;;
53751;SDS011;41095;53.090;6.692;2023-03-01T01:28:57;30.20;;;22.52;;
53751;SDS011;41095;53.090;6.692;2023-03-01T01:31:23;37.30;;;21.13;;
53751;SDS011;41095;53.090;6.692;2023-03-01T01:33:50;39.53;;;21.25;;
53751;SDS011;41095;53.090;6.692;2023-03-01T01:36:16;37.47;;;21.50;;
53751;SDS011;41095;53.090;6.692;2023-03-01T01:38:42;30.17;;;21.30;;
53751;SDS011;41095;53.090;6.692;2023-03-01T01:41:08;26.15;;;22.33;;
53751;SDS011;41095;53.090;6.692;2023-03-01T01:43:42;27.38;;;20.75;;
53751;SDS011;41095;53.090;6.692;2023-03-01T01:48:46;28.63;;;22.08;;
53751;SDS011;41095;53.090;6.692;2023-03-01T01:51:18;24.05;;;20.80;;
53751;SDS011;41095;53.090;6.692;2023-03-01T01:53:51;23.50;;;20.08;;
53751;SDS011;41095;53.090;6.692;2023-03-01T01:56:21;20.88;;;18.02;;
53751;SDS011;41095;53.090;6.692;2023-03-01T01:58:49;19.63;;;16.15;;
53751;SDS011;41095;53.090;6.692;2023-03-01T02:01:15;23.73;;;18.80;;
53751;SDS011;41095;53.090;6.692;2023-03-01T02:03:42;21.52;;;18.58;;
53751;SDS011;41095;53.090;6.692;2023-03-01T02:08:35;23.98;;;19.08;;
53751;SDS011;41095;53.090;6.692;2023-03-01T02:11:03;21.48;;;18.98;;
53751;SDS011;41095;53.090;6.692;2023-03-01T02:13:32;21.63;;;17.13;;
53751;SDS011;41095;53.090;6.692;2023-03-01T02:16:02;22.05;;;18.38;;
53751;SDS011;41095;53.090;6.692;2023-03-01T02:18:28;22.13;;;17.90;;
53751;SDS011;41095;53.090;6.692;2023-03-01T02:21:16;22.10;;;19.00;;
53751;SDS011;41095;53.090;6.692;2023-03-01T02:23:55;21.77;;;18.70;;
53751;SDS011;41095;53.090;6.692;2023-03-01T02:26:31;21.20;;;17.13;;
53751;SDS011;41095;53.090;6.692;2023-03-01T02:29:05;21.55;;;17.52;;
53751;SDS011;41095;53.090;6.692;2023-03-01T02:31:31;18.73;;;14.75;;
53751;SDS011;41095;53.090;6.692;2023-03-01T02:34:06;20.92;;;16.75;;
53751;SDS011;41095;53.090;6.692;2023-03-01T02:36:56;20.20;;;17.63;;
53751;SDS011;41095;53.090;6.692;2023-03-01T02:39:31;19.85;;;17.08;;
53751;SDS011;41095;53.090;6.692;2023-03-01T02:42:07;23.23;;;18.77;;
53751;SDS011;41095;53.090;6.692;2023-03-01T02:44:37;18.58;;;14.50;;
53751;SDS011;41095;53.090;6.692;2023-03-01T02:47:03;22.67;;;18.05;;
53751;SDS011;41095;53.090;6.692;2023-03-01T02:49:32;22.05;;;17.25;;
53751;SDS011;41095;53.090;6.692;2023-03-01T02:52:07;21.92;;;16.23;;
53751;SDS011;41095;53.090;6.692;2023-03-01T02:57:27;27.85;;;18.92;;
53751;SDS011;41095;53.090;6.692;2023-03-01T02:59:54;28.25;;;18.98;;
53751;SDS011;41095;53.090;6.692;2023-03-01T03:02:27;26.67;;;18.67;;
53751;SDS011;41095;53.090;6.692;2023-03-01T03:05:04;20.60;;;17.33;;
53751;SDS011;41095;53.090;6.692;2023-03-01T03:07:33;20.05;;;16.73;;
53751;SDS011;41095;53.090;6.692;2023-03-01T03:10:02;16.60;;;14.63;;
53751;SDS011;41095;53.090;6.692;2023-03-01T03:12:28;15.82;;;12.90;;
53751;SDS011;41095;53.090;6.692;2023-03-01T03:14:54;15.13;;;13.52;;
53751;SDS011;41095;53.090;6.692;2023-03-01T03:17:20;17.70;;;14.02;;
53751;SDS011;41095;53.090;6.692;2023-03-01T03:19:45;17.65;;;15.10;;
53751;SDS011;41095;53.090;6.692;2023-03-01T03:22:14;17.83;;;14.90;;
53751;SDS011;41095;53.090;6.692;2023-03-01T03:24:40;20.50;;;15.95;;
53751;SDS011;41095;53.090;6.692;2023-03-01T03:27:05;19.38;;;14.85;;
53751;SDS011;41095;53.090;6.692;2023-03-01T03:29:33;18.60;;;15.43;;
53751;SDS011;41095;53.090;6.692;2023-03-01T03:31:59;24.75;;;18.25;;
53751;SDS011;41095;53.090;6.692;2023-03-01T03:34:25;21.05;;;15.25;;
53751;SDS011;41095;53.090;6.692;2023-03-01T03:36:54;22.08;;;16.80;;
53751;SDS011;41095;53.090;6.692;2023-03-01T03:39:22;21.25;;;17.33;;
53751;SDS011;41095;53.090;6.692;2023-03-01T03:41:48;24.27;;;17.85;;
53751;SDS011;41095;53.090;6.692;2023-03-01T03:44:14;24.70;;;18.70;;
53751;SDS011;41095;53.090;6.692;2023-03-01T03:46:40;25.88;;;18.02;;
53751;SDS011;41095;53.090;6.692;2023-03-01T03:49:05;24.95;;;19.15;;
53751;SDS011;41095;53.090;6.692;2023-03-01T03:51:31;19.70;;;17.02;;
53751;SDS011;41095;53.090;6.692;2023-03-01T03:53:57;22.77;;;17.92;;
53751;SDS011;41095;53.090;6.692;2023-03-01T03:56:22;21.83;;;16.92;;
53751;SDS011;41095;53.090;6.692;2023-03-01T03:58:51;23.33;;;17.02;;
53751;SDS011;41095;53.090;6.692;2023-03-01T04:01:17;21.20;;;16.50;;
53751;SDS011;41095;53.090;6.692;2023-03-01T04:03:43;24.77;;;18.23;;
53751;SDS011;41095;53.090;6.692;2023-03-01T04:06:14;26.63;;;19.05;;
53751;SDS011;41095;53.090;6.692;2023-03-01T04:08:40;26.25;;;18.80;;
53751;SDS011;41095;53.090;6.692;2023-03-01T04:11:06;29.85;;;20.02;;
53751;SDS011;41095;53.090;6.692;2023-03-01T04:13:51;31.35;;;22.70;;
53751;SDS011;41095;53.090;6.692;2023-03-01T04:16:18;23.80;;;19.08;;
53751;SDS011;41095;53.090;6.692;2023-03-01T04:18:44;24.92;;;19.63;;
53751;SDS011;41095;53.090;6.692;2023-03-01T04:21:10;26.10;;;20.13;;
53751;SDS011;41095;53.090;6.692;2023-03-01T04:23:36;27.02;;;21.58;;
53751;SDS011;41095;53.090;6.692;2023-03-01T04:26:02;25.83;;;19.63;;
53751;SDS011;41095;53.090;6.692;2023-03-01T04:28:32;23.83;;;18.27;;
53751;SDS011;41095;53.090;6.692;2023-03-01T04:31:09;26.85;;;19.50;;
53751;SDS011;41095;53.090;6.692;2023-03-01T04:33:41;23.95;;;17.90;;
53751;SDS011;41095;53.090;6.692;2023-03-01T04:36:08;22.60;;;17.55;;
53751;SDS011;41095;53.090;6.692;2023-03-01T04:38:35;21.42;;;17.17;;
53751;SDS011;41095;53.090;6.692;2023-03-01T04:41:07;20.35;;;16.75;;
53751;SDS011;41095;53.090;6.692;2023-03-01T04:43:35;21.33;;;16.33;;
53751;SDS011;41095;53.090;6.692;2023-03-01T04:46:02;17.90;;;15.52;;
53751;SDS011;41095;53.090;6.692;2023-03-01T04:48:29;18.58;;;16.52;;
53751;SDS011;41095;53.090;6.692;2023-03-01T04:50:56;19.67;;;16.08;;
53751;SDS011;41095;53.090;6.692;2023-03-01T04:53:23;18.35;;;15.57;;
53751;SDS011;41095;53.090;6.692;2023-03-01T04:55:49;18.98;;;15.32;;
53751;SDS011;41095;53.090;6.692;2023-03-01T04:58:15;17.35;;;14.82;;
53751;SDS011;41095;53.090;6.692;2023-03-01T05:00:41;16.63;;;14.73;;
53751;SDS011;41095;53.090;6.692;2023-03-01T05:03:07;20.65;;;15.48;;
53751;SDS011;41095;53.090;6.692;2023-03-01T05:05:37;16.83;;;15.02;;
53751;SDS011;41095;53.090;6.692;2023-03-01T05:08:05;20.48;;;15.20;;
53751;SDS011;41095;53.090;6.692;2023-03-01T05:10:32;20.20;;;16.13;;
53751;SDS011;41095;53.090;6.692;2023-03-01T05:13:00;21.98;;;17.08;;
53751;SDS011;41095;53.090;6.692;2023-03-01T05:15:27;19.85;;;16.52;;
53751;SDS011;41095;53.090;6.692;2023-03-01T05:17:55;19.95;;;16.00;;
53751;SDS011;41095;53.090;6.692;2023-03-01T05:20:23;20.08;;;16.13;;
53751;SDS011;41095;53.090;6.692;2023-03-01T05:22:54;20.92;;;16.38;;
53751;SDS011;41095;53.090;6.692;2023-03-01T05:25:21;18.88;;;15.35;;
53751;SDS011;41095;53.090;6.692;2023-03-01T05:27:47;13.63;;;12.13;;
53751;SDS011;41095;53.090;6.692;2023-03-01T05:30:13;18.20;;;13.25;;
53751;SDS011;41095;53.090;6.692;2023-03-01T05:32:40;20.38;;;14.05;;
53751;SDS011;41095;53.090;6.692;2023-03-01T05:35:08;14.07;;;12.48;;
53751;SDS011;41095;53.090;6.692;2023-03-01T05:37:38;15.63;;;13.13;;
53751;SDS011;41095;53.090;6.692;2023-03-01T05:40:12;18.58;;;13.77;;
53751;SDS011;41095;53.090;6.692;2023-03-01T05:42:43;15.23;;;12.85;;
53751;SDS011;41095;53.090;6.692;2023-03-01T05:45:10;16.67;;;14.15;;
53751;SDS011;41095;53.090;6.692;2023-03-01T05:47:38;15.93;;;12.50;;
53751;SDS011;41095;53.090;6.692;2023-03-01T05:50:09;15.50;;;13.02;;
53751;SDS011;41095;53.090;6.692;2023-03-01T05:52:46;17.23;;;13.65;;
53751;SDS011;41095;53.090;6.692;2023-03-01T05:55:15;16.17;;;14.50;;
53751;SDS011;41095;53.090;6.692;2023-03-01T05:57:42;16.17;;;14.45;;
53751;SDS011;41095;53.090;6.692;2023-03-01T06:00:08;15.98;;;13.63;;
53751;SDS011;41095;53.090;6.692;2023-03-01T06:02:35;17.52;;;14.52;;
53751;SDS011;41095;53.090;6.692;2023-03-01T06:05:01;15.55;;;13.02;;
53751;SDS011;41095;53.090;6.692;2023-03-01T06:07:27;17.63;;;15.27;;
53751;SDS011;41095;53.090;6.692;2023-03-01T06:09:53;18.88;;;15.80;;
53751;SDS011;41095;53.090;6.692;2023-03-01T06:12:19;15.95;;;14.38;;
53751;SDS011;41095;53.090;6.692;2023-03-01T06:14:45;16.05;;;12.88;;
53751;SDS011;41095;53.090;6.692;2023-03-01T06:17:12;13.55;;;12.15;;
53751;SDS011;41095;53.090;6.692;2023-03-01T06:19:38;14.65;;;13.10;;
53751;SDS011;41095;53.090;6.692;2023-03-01T06:22:04;14.27;;;11.90;;
53751;SDS011;41095;53.090;6.692;2023-03-01T06:24:29;17.02;;;13.70;;
53751;SDS011;41095;53.090;6.692;2023-03-01T06:26:55;14.63;;;12.45;;
53751;SDS011;41095;53.090;6.692;2023-03-01T06:29:21;13.60;;;12.30;;
53751;SDS011;41095;53.090;6.692;2023-03-01T06:31:47;13.95;;;11.32;;
53751;SDS011;41095;53.090;6.692;2023-03-01T06:34:13;13.80;;;11.50;;
53751;SDS011;41095;53.090;6.692;2023-03-01T06:36:39;13.48;;;12.15;;
53751;SDS011;41095;53.090;6.692;2023-03-01T06:39:05;15.32;;;13.73;;
53751;SDS011;41095;53.090;6.692;2023-03-01T06:41:31;15.45;;;12.60;;
53751;SDS011;41095;53.090;6.692;2023-03-01T06:43:58;16.52;;;13.65;;
53751;SDS011;41095;53.090;6.692;2023-03-01T06:46:24;15.77;;;13.65;;
53751;SDS011;41095;53.090;6.692;2023-03-01T06:48:50;13.48;;;12.18;;
53751;SDS011;41095;53.090;6.692;2023-03-01T06:51:16;17.15;;;13.30;;
53751;SDS011;41095;53.090;6.692;2023-03-01T06:53:42;17.23;;;12.38;;
53751;SDS011;41095;53.090;6.692;2023-03-01T06:56:07;14.88;;;13.00;;
53751;SDS011;41095;53.090;6.692;2023-03-01T06:58:33;17.05;;;12.55;;
53751;SDS011;41095;53.090;6.692;2023-03-01T07:00:59;14.35;;;12.85;;
53751;SDS011;41095;53.090;6.692;2023-03-01T07:03:24;15.25;;;13.13;;
53751;SDS011;41095;53.090;6.692;2023-03-01T07:05:50;16.77;;;12.90;;
53751;SDS011;41095;53.090;6.692;2023-03-01T07:08:17;14.57;;;12.25;;
53751;SDS011;41095;53.090;6.692;2023-03-01T07:10:44;15.63;;;13.70;;
53751;SDS011;41095;53.090;6.692;2023-03-01T07:13:09;16.77;;;14.10;;
53751;SDS011;41095;53.090;6.692;2023-03-01T07:15:35;19.17;;;14.52;;
53751;SDS011;41095;53.090;6.692;2023-03-01T07:18:01;15.50;;;13.82;;
53751;SDS011;41095;53.090;6.692;2023-03-01T07:20:27;17.20;;;14.77;;
53751;SDS011;41095;53.090;6.692;2023-03-01T07:22:53;14.43;;;13.00;;
53751;SDS011;41095;53.090;6.692;2023-03-01T07:25:20;16.30;;;14.55;;
53751;SDS011;41095;53.090;6.692;2023-03-01T07:27:49;15.32;;;13.73;;
53751;SDS011;41095;53.090;6.692;2023-03-01T07:30:16;16.33;;;14.75;;
53751;SDS011;41095;53.090;6.692;2023-03-01T07:32:42;15.98;;;14.13;;
53751;SDS011;41095;53.090;6.692;2023-03-01T07:35:08;20.83;;;14.65;;
53751;SDS011;41095;53.090;6.692;2023-03-01T07:37:34;20.05;;;15.68;;
53751;SDS011;41095;53.090;6.692;2023-03-01T07:39:59;15.35;;;13.70;;
53751;SDS011;41095;53.090;6.692;2023-03-01T07:42:25;15.18;;;13.68;;
53751;SDS011;41095;53.090;6.692;2023-03-01T07:44:50;15.93;;;14.02;;
53751;SDS011;41095;53.090;6.692;2023-03-01T07:47:16;16.17;;;13.48;;
53751;SDS011;41095;53.090;6.692;2023-03-01T07:49:42;14.38;;;12.98;;
53751;SDS011;41095;53.090;6.692;2023-03-01T07:52:09;14.25;;;12.77;;
53751;SDS011;41095;53.090;6.692;2023-03-01T07:54:36;14.52;;;13.10;;
53751;SDS011;41095;53.090;6.692;2023-03-01T07:57:02;15.07;;;13.50;;
53751;SDS011;41095;53.090;6.692;2023-03-01T07:59:28;15.10;;;13.70;;
53751;SDS011;41095;53.090;6.692;2023-03-01T08:01:55;13.38;;;12.05;;
53751;SDS011;41095;53.090;6.692;2023-03-01T08:04:22;16.25;;;13.68;;
53751;SDS011;41095;53.090;6.692;2023-03-01T08:06:50;14.30;;;12.52;;
53751;SDS011;41095;53.090;6.692;2023-03-01T08:09:16;14.75;;;13.32;;
53751;SDS011;41095;53.090;6.692;2023-03-01T08:11:41;13.23;;;11.73;;
53751;SDS011;41095;53.090;6.692;2023-03-01T08:14:07;12.43;;;11.20;;
53751;SDS011;41095;53.090;6.692;2023-03-01T08:16:33;13.18;;;11.77;;
53751;SDS011;41095;53.090;6.692;2023-03-01T08:19:07;14.77;;;13.18;;
53751;SDS011;41095;53.090;6.692;2023-03-01T08:21:34;14.40;;;13.00;;
53751;SDS011;41095;53.090;6.692;2023-03-01T08:24:00;16.15;;;13.75;;
53751;SDS011;41095;53.090;6.692;2023-03-01T08:26:27;13.65;;;12.32;;
53751;SDS011;41095;53.090;6.692;2023-03-01T08:28:52;16.95;;;14.02;;
53751;SDS011;41095;53.090;6.692;2023-03-01T08:31:19;19.80;;;17.67;;
53751;SDS011;41095;53.090;6.692;2023-03-01T08:33:52;24.08;;;18.38;;
53751;SDS011;41095;53.090;6.692;2023-03-01T08:36:23;21.23;;;17.98;;
53751;SDS011;41095;53.090;6.692;2023-03-01T08:38:50;22.08;;;16.35;;
53751;SDS011;41095;53.090;6.692;2023-03-01T08:41:16;19.92;;;17.67;;
53751;SDS011;41095;53.090;6.692;2023-03-01T08:43:42;23.33;;;19.38;;
53751;SDS011;41095;53.090;6.692;2023-03-01T08:46:08;24.63;;;20.33;;
53751;SDS011;41095;53.090;6.692;2023-03-01T08:48:33;40.10;;;21.67;;
53751;SDS011;41095;53.090;6.692;2023-03-01T08:51:09;56.97;;;19.98;;
53751;SDS011;41095;53.090;6.692;2023-03-01T08:53:37;81.97;;;21.27;;
53751;SDS011;41095;53.090;6.692;2023-03-01T08:56:03;66.00;;;19.45;;
53751;SDS011;41095;53.090;6.692;2023-03-01T08:58:29;62.38;;;20.92;;
53751;SDS011;41095;53.090;6.692;2023-03-01T09:00:55;97.82;;;24.60;;
53751;SDS011;41095;53.090;6.692;2023-03-01T09:03:24;83.22;;;22.58;;
53751;SDS011;41095;53.090;6.692;2023-03-01T09:05:51;41.72;;;18.45;;
53751;SDS011;41095;53.090;6.692;2023-03-01T09:08:17;74.20;;;21.45;;
53751;SDS011;41095;53.090;6.692;2023-03-01T09:10:43;52.03;;;21.48;;
53751;SDS011;41095;53.090;6.692;2023-03-01T09:13:09;45.28;;;18.65;;
53751;SDS011;41095;53.090;6.692;2023-03-01T09:15:36;114.82;;;25.58;;
53751;SDS011;41095;53.090;6.692;2023-03-01T09:18:03;114.88;;;24.70;;
53751;SDS011;41095;53.090;6.692;2023-03-01T09:20:30;61.17;;;20.73;;
53751;SDS011;41095;53.090;6.692;2023-03-01T09:22:56;49.78;;;16.65;;
53751;SDS011;41095;53.090;6.692;2023-03-01T09:25:23;123.53;;;24.35;;
53751;SDS011;41095;53.090;6.692;2023-03-01T09:27:52;209.27;;;36.28;;
53751;SDS011;41095;53.090;6.692;2023-03-01T09:30:18;88.38;;;21.05;;
53751;SDS011;41095;53.090;6.692;2023-03-01T09:32:45;192.23;;;30.42;;
53751;SDS011;41095;53.090;6.692;2023-03-01T09:35:11;97.43;;;21.75;;
53751;SDS011;41095;53.090;6.692;2023-03-01T09:37:37;214.48;;;31.00;;
53751;SDS011;41095;53.090;6.692;2023-03-01T09:40:04;121.82;;;22.73;;
53751;SDS011;41095;53.090;6.692;2023-03-01T09:42:34;173.45;;;25.80;;
53751;SDS011;41095;53.090;6.692;2023-03-01T09:45:11;87.30;;;19.15;;
53751;SDS011;41095;53.090;6.692;2023-03-01T09:47:47;137.05;;;24.30;;
53751;SDS011;41095;53.090;6.692;2023-03-01T09:50:17;109.95;;;20.92;;
53751;SDS011;41095;53.090;6.692;2023-03-01T09:55:26;55.70;;;16.05;;
53751;SDS011;41095;53.090;6.692;2023-03-01T09:58:01;40.25;;;15.25;;
53751;SDS011;41095;53.090;6.692;2023-03-01T10:00:49;52.53;;;16.02;;
53751;SDS011;41095;53.090;6.692;2023-03-01T10:10:54;39.45;;;20.80;;
53751;SDS011;41095;53.090;6.692;2023-03-01T10:16:37;32.92;;;22.92;;
53751;SDS011;41095;53.090;6.692;2023-03-01T10:18:46;32.78;;;22.80;;
53751;SDS011;41095;53.090;6.692;2023-03-01T10:21:20;29.48;;;20.83;;
53751;SDS011;41095;53.090;6.692;2023-03-01T10:23:46;30.10;;;22.13;;
53751;SDS011;41095;53.090;6.692;2023-03-01T10:29:02;32.35;;;21.92;;
53751;SDS011;41095;53.090;6.692;2023-03-01T10:31:53;26.60;;;19.45;;
53751;SDS011;41095;53.090;6.692;2023-03-01T10:34:26;31.05;;;21.13;;
53751;SDS011;41095;53.090;6.692;2023-03-01T10:36:56;22.65;;;18.45;;
53751;SDS011;41095;53.090;6.692;2023-03-01T10:39:56;25.20;;;19.02;;
53751;SDS011;41095;53.090;6.692;2023-03-01T10:42:38;23.95;;;18.30;;
53751;SDS011;41095;53.090;6.692;2023-03-01T10:48:23;23.02;;;17.88;;
53751;SDS011;41095;53.090;6.692;2023-03-01T10:51:14;24.55;;;17.58;;
53751;SDS011;41095;53.090;6.692;2023-03-01T10:53:43;26.25;;;16.98;;
53751;SDS011;41095;53.090;6.692;2023-03-01T10:56:14;21.50;;;16.42;;
53751;SDS011;41095;53.090;6.692;2023-03-01T10:58:57;23.25;;;16.90;;
53751;SDS011;41095;53.090;6.692;2023-03-01T11:06:35;16.77;;;13.77;;
53751;SDS011;41095;53.090;6.692;2023-03-01T11:09:18;18.30;;;14.65;;
53751;SDS011;41095;53.090;6.692;2023-03-01T11:11:46;14.15;;;11.75;;
53751;SDS011;41095;53.090;6.692;2023-03-01T11:14:20;17.35;;;12.38;;
53751;SDS011;41095;53.090;6.692;2023-03-01T11:16:48;12.80;;;10.80;;
53751;SDS011;41095;53.090;6.692;2023-03-01T11:19:23;13.57;;;10.85;;
53751;SDS011;41095;53.090;6.692;2023-03-01T11:22:02;12.98;;;10.00;;
53751;SDS011;41095;53.090;6.692;2023-03-01T11:27:51;15.93;;;11.68;;
53751;SDS011;41095;53.090;6.692;2023-03-01T11:30:00;11.95;;;9.57;;
53751;SDS011;41095;53.090;6.692;2023-03-01T11:32:43;15.02;;;11.77;;
53751;SDS011;41095;53.090;6.692;2023-03-01T11:35:17;17.17;;;12.15;;
53751;SDS011;41095;53.090;6.692;2023-03-01T11:40:41;13.20;;;10.98;;
53751;SDS011;41095;53.090;6.692;2023-03-01T11:43:22;16.52;;;11.70;;
53751;SDS011;41095;53.090;6.692;2023-03-01T11:54:37;15.65;;;12.73;;
53751;SDS011;41095;53.090;6.692;2023-03-01T12:08:17;14.82;;;12.48;;
53751;SDS011;41095;53.090;6.692;2023-03-01T12:11:01;15.40;;;11.98;;
53751;SDS011;41095;53.090;6.692;2023-03-01T12:13:51;16.75;;;12.25;;
53751;SDS011;41095;53.090;6.692;2023-03-01T12:24:56;18.08;;;12.82;;
53751;SDS011;41095;53.090;6.692;2023-03-01T12:41:11;18.98;;;12.25;;
53751;SDS011;41095;53.090;6.692;2023-03-01T12:46:40;19.02;;;12.55;;
53751;SDS011;41095;53.090;6.692;2023-03-01T12:54:48;18.45;;;14.52;;
53751;SDS011;41095;53.090;6.692;2023-03-01T13:00:15;18.80;;;15.15;;
53751;SDS011;41095;53.090;6.692;2023-03-01T13:09:12;22.50;;;14.20;;
53751;SDS011;41095;53.090;6.692;2023-03-01T13:11:41;18.73;;;13.98;;
53751;SDS011;41095;53.090;6.692;2023-03-01T13:14:42;19.10;;;14.18;;
53751;SDS011;41095;53.090;6.692;2023-03-01T13:17:00;19.60;;;14.40;;
53751;SDS011;41095;53.090;6.692;2023-03-01T13:19:26;20.30;;;13.88;;
53751;SDS011;41095;53.090;6.692;2023-03-01T13:21:54;19.40;;;14.85;;
53751;SDS011;41095;53.090;6.692;2023-03-01T13:29:48;17.73;;;13.18;;
53751;SDS011;41095;53.090;6.692;2023-03-01T13:34:46;21.10;;;15.23;;
53751;SDS011;41095;53.090;6.692;2023-03-01T13:37:23;18.33;;;15.05;;
53751;SDS011;41095;53.090;6.692;2023-03-01T13:39:56;22.45;;;15.88;;
53751;SDS011;41095;53.090;6.692;2023-03-01T13:45:16;20.42;;;13.85;;
53751;SDS011;41095;53.090;6.692;2023-03-01T13:47:48;21.48;;;14.48;;
53751;SDS011;41095;53.090;6.692;2023-03-01T13:50:20;24.05;;;14.65;;
53751;SDS011;41095;53.090;6.692;2023-03-01T13:52:50;21.17;;;15.07;;
53751;SDS011;41095;53.090;6.692;2023-03-01T13:57:51;24.05;;;14.50;;
53751;SDS011;41095;53.090;6.692;2023-03-01T14:02:59;22.27;;;15.40;;
53751;SDS011;41095;53.090;6.692;2023-03-01T14:05:36;16.42;;;11.20;;
53751;SDS011;41095;53.090;6.692;2023-03-01T14:08:03;20.05;;;15.07;;
53751;SDS011;41095;53.090;6.692;2023-03-01T14:10:32;20.23;;;13.95;;
53751;SDS011;41095;53.090;6.692;2023-03-01T14:15:55;16.67;;;11.35;;
53751;SDS011;41095;53.090;6.692;2023-03-01T14:21:45;19.30;;;13.20;;
53751;SDS011;41095;53.090;6.692;2023-03-01T14:24:18;18.33;;;12.73;;
53751;SDS011;41095;53.090;6.692;2023-03-01T14:26:47;17.95;;;13.68;;
53751;SDS011;41095;53.090;6.692;2023-03-01T14:32:27;19.45;;;16.05;;
53751;SDS011;41095;53.090;6.692;2023-03-01T14:34:55;21.48;;;14.30;;
53751;SDS011;41095;53.090;6.692;2023-03-01T14:37:25;19.33;;;15.02;;
53751;SDS011;41095;53.090;6.692;2023-03-01T14:39:52;21.90;;;16.25;;
53751;SDS011;41095;53.090;6.692;2023-03-01T14:42:20;23.45;;;15.88;;
53751;SDS011;41095;53.090;6.692;2023-03-01T14:44:47;24.38;;;15.52;;
53751;SDS011;41095;53.090;6.692;2023-03-01T14:47:37;21.70;;;14.38;;
53751;SDS011;41095;53.090;6.692;2023-03-01T14:50:08;21.30;;;13.95;;
53751;SDS011;41095;53.090;6.692;2023-03-01T14:52:56;21.58;;;14.75;;
53751;SDS011;41095;53.090;6.692;2023-03-01T14:57:56;21.20;;;15.98;;
53751;SDS011;41095;53.090;6.692;2023-03-01T15:00:27;19.98;;;14.88;;
53751;SDS011;41095;53.090;6.692;2023-03-01T15:02:54;21.63;;;16.10;;
53751;SDS011;41095;53.090;6.692;2023-03-01T15:07:58;23.70;;;15.32;;
53751;SDS011;41095;53.090;6.692;2023-03-01T15:10:28;23.50;;;15.65;;
53751;SDS011;41095;53.090;6.692;2023-03-01T15:13:19;21.27;;;14.63;;
53751;SDS011;41095;53.090;6.692;2023-03-01T15:15:48;24.00;;;15.68;;
53751;SDS011;41095;53.090;6.692;2023-03-01T15:18:17;20.27;;;14.80;;
53751;SDS011;41095;53.090;6.692;2023-03-01T15:20:43;20.48;;;15.00;;
53751;SDS011;41095;53.090;6.692;2023-03-01T15:25:46;25.90;;;17.38;;
53751;SDS011;41095;53.090;6.692;2023-03-01T15:28:19;21.42;;;15.45;;
53751;SDS011;41095;53.090;6.692;2023-03-01T15:30:45;21.20;;;16.48;;
53751;SDS011;41095;53.090;6.692;2023-03-01T15:35:52;23.75;;;16.20;;
53751;SDS011;41095;53.090;6.692;2023-03-01T15:38:55;20.92;;;15.45;;
53751;SDS011;41095;53.090;6.692;2023-03-01T15:41:22;21.20;;;15.75;;
53751;SDS011;41095;53.090;6.692;2023-03-01T15:43:56;18.63;;;14.20;;
53751;SDS011;41095;53.090;6.692;2023-03-01T15:46:30;24.02;;;15.40;;
53751;SDS011;41095;53.090;6.692;2023-03-01T15:48:58;19.10;;;15.10;;
53751;SDS011;41095;53.090;6.692;2023-03-01T15:51:33;22.63;;;15.00;;
53751;SDS011;41095;53.090;6.692;2023-03-01T15:54:04;24.73;;;15.10;;
53751;SDS011;41095;53.090;6.692;2023-03-01T15:56:32;23.13;;;15.38;;
53751;SDS011;41095;53.090;6.692;2023-03-01T15:59:01;20.65;;;16.23;;
53751;SDS011;41095;53.090;6.692;2023-03-01T16:01:28;20.42;;;15.07;;
53751;SDS011;41095;53.090;6.692;2023-03-01T16:03:54;19.65;;;15.20;;
53751;SDS011;41095;53.090;6.692;2023-03-01T16:06:21;20.58;;;15.18;;
53751;SDS011;41095;53.090;6.692;2023-03-01T16:08:47;19.77;;;15.30;;
53751;SDS011;41095;53.090;6.692;2023-03-01T16:11:16;21.48;;;16.33;;
53751;SDS011;41095;53.090;6.692;2023-03-01T16:13:43;21.30;;;16.42;;
53751;SDS011;41095;53.090;6.692;2023-03-01T16:16:10;24.85;;;17.38;;
53751;SDS011;41095;53.090;6.692;2023-03-01T16:18:40;21.20;;;14.25;;
53751;SDS011;41095;53.090;6.692;2023-03-01T16:21:06;25.58;;;17.90;;
53751;SDS011;41095;53.090;6.692;2023-03-01T16:23:33;23.30;;;15.75;;
53751;SDS011;41095;53.090;6.692;2023-03-01T16:25:59;23.10;;;16.48;;
53751;SDS011;41095;53.090;6.692;2023-03-01T16:28:25;21.67;;;15.75;;
53751;SDS011;41095;53.090;6.692;2023-03-01T16:30:51;20.50;;;15.45;;
53751;SDS011;41095;53.090;6.692;2023-03-01T16:33:17;24.77;;;17.23;;
53751;SDS011;41095;53.090;6.692;2023-03-01T16:35:43;20.65;;;16.40;;
53751;SDS011;41095;53.090;6.692;2023-03-01T16:38:09;19.77;;;15.63;;
53751;SDS011;41095;53.090;6.692;2023-03-01T16:40:35;18.50;;;14.90;;
53751;SDS011;41095;53.090;6.692;2023-03-01T16:43:01;20.25;;;15.13;;
53751;SDS011;41095;53.090;6.692;2023-03-01T16:45:27;19.60;;;14.57;;